createdAt,value
2023-02-15T06:43:30.024Z,102216.28
2023-02-15T06:45:58.164Z,102217.66
2023-02-15T06:48:26.084Z,102223.84
2023-02-15T06:50:54.440Z,102222.00
2023-02-15T06:53:22.290Z,102224.00
2023-02-15T06:55:49.955Z,102226.25
2023-02-15T06:58:17.877Z,102222.72
2023-02-15T07:00:45.640Z,102224.94
2023-02-15T07:03:15.857Z,102229.94
2023-02-15T07:05:44.750Z,102228.09
2023-02-15T07:08:12.499Z,102243.34
2023-02-15T07:10:40.170Z,102225.94
2023-02-15T07:13:07.963Z,102230.53
2023-02-15T07:15:35.765Z,102226.16
2023-02-15T07:18:03.593Z,102229.47
2023-02-15T07:20:31.356Z,102229.50
2023-02-15T07:22:59.043Z,102230.50
2023-02-15T07:25:26.744Z,102231.75
2023-02-15T07:27:58.936Z,102224.16
2023-02-15T07:30:26.954Z,102228.03
2023-02-15T07:33:17.069Z,102229.66
2023-02-15T07:35:49.799Z,102224.47
2023-02-15T07:38:18.220Z,102222.88
2023-02-15T07:40:46.285Z,102220.38
2023-02-15T07:43:14.977Z,102234.81
2023-02-15T07:45:42.970Z,102244.47
2023-02-15T07:48:10.716Z,102235.28
2023-02-15T07:50:38.449Z,102234.66
2023-02-15T07:53:06.216Z,102232.16
2023-02-15T07:55:34.125Z,102233.19
2023-02-15T07:58:01.926Z,102239.00
2023-02-15T08:00:31.051Z,102241.19
2023-02-15T08:03:17.245Z,102239.84
2023-02-15T08:05:46.276Z,102233.81
2023-02-15T08:08:32.595Z,102240.28
2023-02-15T08:11:21.410Z,102235.56
2023-02-15T08:14:00.069Z,102243.41
2023-02-15T08:16:40.066Z,102246.25
2023-02-15T08:19:18.643Z,102244.97
2023-02-15T08:22:00.763Z,102240.91
2023-02-15T08:24:32.174Z,102245.22
2023-02-15T08:27:00.409Z,102242.41
2023-02-15T08:29:29.690Z,102233.13
2023-02-15T08:32:03.680Z,102226.38
2023-02-15T08:34:33.598Z,102231.53
2023-02-15T08:37:02.130Z,102235.94
2023-02-15T08:39:30.086Z,102229.78
2023-02-15T08:41:57.880Z,102238.00
2023-02-15T08:44:25.669Z,102238.16
2023-02-15T08:46:53.433Z,102230.91
2023-02-15T08:49:23.036Z,102231.94
2023-02-15T08:51:51.327Z,102235.88
2023-02-15T08:54:21.902Z,102236.75
2023-02-15T08:56:49.932Z,102234.19
2023-02-15T08:59:22.859Z,102232.50
2023-02-15T09:01:53.186Z,102228.66
2023-02-15T09:04:22.174Z,102224.81
2023-02-15T09:06:51.687Z,102242.38
2023-02-15T09:09:20.476Z,102232.06
2023-02-15T09:11:55.344Z,102226.81
2023-02-15T09:14:27.916Z,102234.03
2023-02-15T09:16:56.276Z,102232.59
2023-02-15T09:19:24.894Z,102221.50
2023-02-15T09:21:52.929Z,102224.91
2023-02-15T09:24:21.027Z,102230.00
2023-02-15T09:26:49.811Z,102221.47
2023-02-15T09:29:18.646Z,102230.97
2023-02-15T09:31:50.010Z,102223.09
2023-02-15T09:34:20.438Z,102218.13
2023-02-15T09:36:49.045Z,102219.72
2023-02-15T09:39:19.702Z,102226.00
2023-02-15T09:41:56.440Z,102220.66
2023-02-15T09:45:01.490Z,102224.81
2023-02-15T09:47:35.216Z,102220.38
2023-02-15T09:50:21.794Z,102227.75
2023-02-15T09:53:20.225Z,102214.44
2023-02-15T09:56:13.952Z,102218.56
2023-02-15T09:59:10.811Z,102215.28
2023-02-15T10:02:02.699Z,102209.47
2023-02-15T10:04:44.266Z,102206.19
2023-02-15T10:07:43.260Z,102208.63
2023-02-15T10:10:26.612Z,102206.84
2023-02-15T10:13:13.762Z,102202.88
2023-02-15T10:15:53.480Z,102207.44
2023-02-15T10:18:27.095Z,102203.13
2023-02-15T10:21:03.771Z,102192.63
2023-02-15T10:23:41.049Z,102203.78
2023-02-15T10:26:19.570Z,102191.53
2023-02-15T10:28:57.425Z,102200.38
2023-02-15T10:31:29.351Z,102188.84
2023-02-15T10:34:24.888Z,102199.03
2023-02-15T10:37:06.013Z,102192.91
2023-02-15T10:39:43.687Z,102194.59
2023-02-15T10:42:48.310Z,102192.97
2023-02-15T10:45:33.037Z,102187.69
2023-02-15T10:48:22.242Z,102183.00
2023-02-15T10:50:53.550Z,102179.72
2023-02-15T10:54:12.220Z,102179.41
2023-02-15T10:57:09.862Z,102174.13
2023-02-15T10:59:54.590Z,102176.38
2023-02-15T11:02:48.335Z,102167.00
2023-02-15T11:05:22.453Z,102168.63
2023-02-15T11:07:52.727Z,102165.31
2023-02-15T11:10:56.261Z,102151.53
2023-02-15T11:13:29.478Z,102151.16
2023-02-15T11:16:17.637Z,102144.91
2023-02-15T11:19:07.357Z,102129.78
2023-02-15T11:21:42.131Z,102126.75
2023-02-15T11:24:21.485Z,102121.47
2023-02-15T11:27:01.094Z,102119.06
2023-02-15T11:29:41.607Z,102115.56
2023-02-15T11:32:25.270Z,102113.06
2023-02-15T11:34:56.322Z,102112.91
2023-02-15T11:37:37.159Z,102096.84
2023-02-15T11:40:18.832Z,102102.53
2023-02-15T11:42:51.070Z,102104.53
2023-02-15T11:45:24.220Z,102090.38
2023-02-15T11:47:52.281Z,102089.97
2023-02-15T11:50:33.189Z,102089.00
2023-02-15T11:53:05.761Z,102082.13
2023-02-15T11:55:36.252Z,102083.72
2023-02-15T11:58:35.824Z,102084.31
2023-02-15T12:01:22.438Z,102075.72
2023-02-15T12:03:53.236Z,102078.72
2023-02-15T12:06:31.154Z,102074.03
2023-02-15T12:09:39.971Z,102066.78
2023-02-15T12:12:26.691Z,102067.50
2023-02-15T12:14:56.991Z,102069.00
2023-02-15T12:17:28.937Z,102064.09
2023-02-15T12:20:01.473Z,102065.66
2023-02-15T12:22:37.352Z,102061.88
2023-02-15T12:25:24.518Z,102056.78
2023-02-15T12:27:52.545Z,102054.03
2023-02-15T12:30:37.015Z,102061.69
2023-02-15T12:33:26.667Z,102059.09
2023-02-15T12:36:42.885Z,102055.91
2023-02-15T12:39:13.652Z,102060.09
2023-02-15T12:42:02.694Z,102056.34
2023-02-15T12:44:33.841Z,102041.44
2023-02-15T12:47:17.891Z,102048.13
2023-02-15T12:50:05.392Z,102040.34
2023-02-15T12:52:33.343Z,102029.47
2023-02-15T12:55:33.628Z,102029.13
2023-02-15T12:58:10.030Z,102027.03
2023-02-15T13:00:38.478Z,102018.25
2023-02-15T13:03:16.800Z,102007.44
2023-02-15T13:05:47.691Z,102011.63
2023-02-15T13:08:18.752Z,102003.69
2023-02-15T13:11:05.342Z,102000.03
2023-02-15T13:13:36.673Z,101988.97
2023-02-15T13:16:10.900Z,101976.53
2023-02-15T13:18:44.160Z,101987.25
2023-02-15T13:21:12.433Z,101989.84
2023-02-15T13:23:47.479Z,101986.00
2023-02-15T13:26:22.378Z,101975.81
2023-02-15T13:28:56.206Z,101968.63
2023-02-15T13:31:29.526Z,101978.03
2023-02-15T13:34:04.499Z,101966.16
2023-02-15T13:36:53.158Z,101964.00
2023-02-15T13:39:35.915Z,101961.53
2023-02-15T13:42:27.375Z,101965.63
2023-02-15T13:45:17.229Z,101965.38
2023-02-15T13:48:09.074Z,101973.16
2023-02-15T13:50:58.181Z,101968.75
2023-02-15T13:53:36.324Z,101966.06
2023-02-15T13:56:13.553Z,101960.56
2023-02-15T13:59:07.540Z,101968.31
2023-02-15T14:01:40.762Z,101964.16
2023-02-15T14:04:27.551Z,101958.56
2023-02-15T14:07:16.160Z,101965.25
2023-02-15T14:09:49.907Z,101966.94
2023-02-15T14:13:14.680Z,101966.94
2023-02-15T14:16:09.942Z,101968.88
2023-02-15T14:18:50.330Z,101966.13
2023-02-15T14:21:33.800Z,101960.28
2023-02-15T14:24:30.687Z,101958.34
2023-02-15T14:27:08.731Z,101957.31
2023-02-15T14:29:53.999Z,101961.69
2023-02-15T14:32:25.992Z,101956.72
2023-02-15T14:34:57.617Z,101960.06
2023-02-15T14:37:36.689Z,101953.16
2023-02-15T14:40:40.552Z,101947.94
2023-02-15T14:43:32.291Z,101954.81
2023-02-15T14:46:23.436Z,101952.91
2023-02-15T14:48:54.972Z,101954.78
2023-02-15T14:51:41.620Z,101959.47
2023-02-15T14:54:10.575Z,101943.78
2023-02-15T14:56:41.723Z,101951.25
2023-02-15T14:59:12.735Z,101957.91
2023-02-15T15:01:42.477Z,101962.84
2023-02-15T15:04:22.526Z,101949.63
2023-02-15T15:07:08.801Z,101945.22
2023-02-15T15:09:39.028Z,101955.69
2023-02-15T15:12:36.983Z,101941.38
2023-02-15T15:15:05.287Z,101946.63
2023-02-15T15:17:33.598Z,101953.25
2023-02-15T15:20:05.637Z,101949.38
2023-02-15T15:22:35.282Z,101952.72
2023-02-15T15:25:45.873Z,101947.47
2023-02-15T15:28:46.089Z,101944.16
2023-02-15T15:31:22.931Z,101952.97
2023-02-15T15:34:12.470Z,101948.28
2023-02-15T15:37:02.302Z,101952.97
2023-02-15T15:39:48.917Z,101945.28
2023-02-15T15:42:22.802Z,101945.28
2023-02-15T15:45:14.616Z,101941.97
2023-02-15T15:48:19.552Z,101944.16
2023-02-15T15:50:49.676Z,101944.44
2023-02-15T15:53:23.520Z,101928.19
2023-02-15T15:55:56.852Z,101940.03
2023-02-15T15:58:25.705Z,101939.19
2023-02-15T16:01:02.402Z,101938.09
2023-02-15T16:03:30.444Z,101936.41
2023-02-15T16:06:01.584Z,101941.63
2023-02-15T16:08:41.227Z,101930.31
2023-02-15T16:11:20.514Z,101944.06
2023-02-15T16:13:48.633Z,101941.59
2023-02-15T16:16:23.395Z,101941.28
2023-02-15T16:18:52.300Z,101939.03
2023-02-15T16:21:24.473Z,101946.72
2023-02-15T16:24:11.246Z,101942.25
2023-02-15T16:26:42.226Z,101955.69
2023-02-15T16:29:19.724Z,101954.28
2023-02-15T16:32:16.899Z,101953.34
2023-02-15T16:35:03.001Z,101966.66
2023-02-15T16:37:36.001Z,101959.44
2023-02-15T16:40:04.841Z,101967.59
2023-02-15T16:42:32.643Z,101962.28
2023-02-15T16:45:10.274Z,101965.78
2023-02-15T16:47:43.513Z,101967.91
2023-02-15T16:50:38.994Z,101974.97
2023-02-15T16:53:15.356Z,101970.72
2023-02-15T16:55:43.921Z,101978.59
2023-02-15T16:58:18.779Z,101982.13
2023-02-15T17:00:46.916Z,101985.75
2023-02-15T17:03:14.871Z,101993.44
2023-02-15T17:05:42.689Z,101994.19
2023-02-15T17:08:26.397Z,101989.72
2023-02-15T17:11:00.537Z,101993.91
2023-02-15T17:13:29.855Z,102002.97
2023-02-15T17:16:00.778Z,102003.25
2023-02-15T17:18:33.468Z,101999.34
2023-02-15T17:21:19.195Z,102000.91
2023-02-15T17:23:50.447Z,102002.00
2023-02-15T17:26:28.386Z,101999.66
2023-02-15T17:28:59.214Z,102005.44
2023-02-15T17:31:33.233Z,101994.81
2023-02-15T17:34:04.620Z,102003.56
2023-02-15T17:36:32.777Z,102003.19
2023-02-15T17:39:19.173Z,102002.63
2023-02-15T17:41:48.458Z,102010.72
2023-02-15T17:44:16.526Z,102005.63
2023-02-15T17:46:44.831Z,102006.63
2023-02-15T17:49:23.856Z,102006.88
2023-02-15T17:51:51.846Z,102006.28
2023-02-15T17:54:38.379Z,102009.50
2023-02-15T17:57:13.834Z,102017.56
2023-02-15T18:00:00.978Z,102013.91
2023-02-15T18:02:53.352Z,102016.28
2023-02-15T18:05:40.694Z,102016.75
2023-02-15T18:08:35.736Z,102009.84
2023-02-15T18:11:22.930Z,102016.38
2023-02-15T18:13:50.820Z,102028.75
2023-02-15T18:16:24.873Z,102022.19
2023-02-15T18:18:53.420Z,102028.13
2023-02-15T18:21:21.569Z,102025.84
2023-02-15T18:23:49.394Z,102031.66
2023-02-15T18:26:23.739Z,102032.59
2023-02-15T18:28:51.760Z,102032.47
2023-02-15T18:31:21.444Z,102036.50
2023-02-15T18:33:55.144Z,102035.06
2023-02-15T18:36:33.748Z,102030.91
2023-02-15T18:39:07.740Z,102032.66
2023-02-15T18:41:36.947Z,102033.34
2023-02-15T18:44:12.412Z,102030.25
2023-02-15T18:46:40.293Z,102015.50
2023-02-15T18:49:08.268Z,102023.22
2023-02-15T18:51:40.410Z,102017.66
2023-02-15T18:54:21.785Z,102030.88
2023-02-15T18:56:56.933Z,102021.03
2023-02-15T18:59:26.245Z,102023.59
2023-02-15T19:01:54.541Z,102026.50
2023-02-15T19:04:24.873Z,102021.50
2023-02-15T19:06:54.898Z,102035.53
2023-02-15T19:09:24.699Z,102029.47
2023-02-15T19:11:55.258Z,102027.88
2023-02-15T19:14:26.815Z,102025.91
2023-02-15T19:16:56.594Z,102032.72
2023-02-15T19:19:24.712Z,102028.03
2023-02-15T19:21:53.440Z,102028.34
2023-02-15T19:24:26.972Z,102040.84
2023-02-15T19:26:55.077Z,102033.56
2023-02-15T19:29:30.073Z,102028.19
2023-02-15T19:31:58.326Z,102034.69
2023-02-15T19:34:27.739Z,102032.50
2023-02-15T19:36:56.874Z,102036.50
2023-02-15T19:39:37.563Z,102037.41
2023-02-15T19:42:05.658Z,102035.56
2023-02-15T19:44:33.476Z,102034.13
2023-02-15T19:47:01.519Z,102030.94
2023-02-15T19:49:29.676Z,102034.66
2023-02-15T19:51:58.825Z,102040.13
2023-02-15T19:54:33.681Z,102041.44
2023-02-15T19:57:02.366Z,102035.66
2023-02-15T19:59:34.075Z,102040.34
2023-02-15T20:02:02.068Z,102038.13
2023-02-15T20:04:29.910Z,102040.50
2023-02-15T20:07:02.029Z,102039.31
2023-02-15T20:09:38.171Z,102046.72
2023-02-15T20:12:19.144Z,102048.63
2023-02-15T20:14:47.128Z,102032.38
2023-02-15T20:17:15.085Z,102045.38
2023-02-15T20:19:43.113Z,102032.84
2023-02-15T20:22:31.581Z,102049.78
2023-02-15T20:25:02.657Z,102049.63
2023-02-15T20:27:31.229Z,102054.81
2023-02-15T20:29:59.607Z,102035.78
2023-02-15T20:32:28.952Z,102052.09
2023-02-15T20:34:58.599Z,102045.03
2023-02-15T20:37:33.939Z,102048.59
2023-02-15T20:40:02.422Z,102057.00
2023-02-15T20:42:30.479Z,102054.91
2023-02-15T20:44:58.335Z,102058.06
2023-02-15T20:47:27.655Z,102071.03
2023-02-15T20:49:55.854Z,102062.25
2023-02-15T20:52:26.370Z,102066.44
2023-02-15T20:54:54.799Z,102065.63
2023-02-15T20:57:22.642Z,102068.34
2023-02-15T20:59:50.513Z,102068.38
2023-02-15T21:02:25.585Z,102069.41
2023-02-15T21:04:55.679Z,102069.03
2023-02-15T21:07:23.815Z,102069.03
2023-02-15T21:09:56.163Z,102076.97
2023-02-15T21:12:32.119Z,102068.22
2023-02-15T21:15:00.098Z,102078.44
2023-02-15T21:17:32.281Z,102074.50
2023-02-15T21:20:02.345Z,102064.03
2023-02-15T21:22:37.560Z,102052.13
2023-02-15T21:25:06.099Z,102064.44
2023-02-15T21:27:34.461Z,102055.03
2023-02-15T21:30:02.540Z,102059.00
2023-02-15T21:32:33.763Z,102054.88
2023-02-15T21:35:01.788Z,102058.59
2023-02-15T21:37:33.377Z,102066.56
2023-02-15T21:40:03.110Z,102056.97
2023-02-15T21:42:49.990Z,102068.84
2023-02-15T21:45:37.068Z,102052.78
2023-02-15T21:48:05.373Z,102070.34
2023-02-15T21:50:54.278Z,102049.66
2023-02-15T21:53:33.941Z,102059.91
2023-02-15T21:56:04.863Z,102051.97
2023-02-15T21:58:36.667Z,102063.22
2023-02-15T22:01:05.444Z,102066.16
2023-02-15T22:03:42.666Z,102050.28
2023-02-15T22:06:13.732Z,102052.78
2023-02-15T22:08:41.756Z,102059.28
2023-02-15T22:11:15.460Z,102057.81
2023-02-15T22:13:44.426Z,102050.69
2023-02-15T22:16:30.600Z,102058.66
2023-02-15T22:18:58.474Z,102066.81
2023-02-15T22:21:27.328Z,102063.66
2023-02-15T22:23:55.215Z,102064.28
2023-02-15T22:26:25.126Z,102073.25
2023-02-15T22:28:53.205Z,102070.78
2023-02-15T22:31:23.397Z,102068.66
2023-02-15T22:33:51.644Z,102060.53
2023-02-15T22:36:25.539Z,102055.50
2023-02-15T22:38:54.503Z,102053.44
2023-02-15T22:41:29.366Z,102061.34
2023-02-15T22:43:57.914Z,102051.34
2023-02-15T22:46:25.987Z,102070.16
2023-02-15T22:48:54.091Z,102056.56
2023-02-15T22:51:24.215Z,102052.19
2023-02-15T22:53:53.403Z,102065.97
2023-02-15T22:56:35.027Z,102054.47
2023-02-15T22:59:07.274Z,102071.00
2023-02-15T23:01:36.945Z,102069.72
2023-02-15T23:04:05.332Z,102071.16
2023-02-15T23:06:34.692Z,102070.34
2023-02-15T23:09:02.581Z,102079.09
2023-02-15T23:11:30.693Z,102079.31
2023-02-15T23:13:58.651Z,102071.38
2023-02-15T23:16:26.596Z,102083.06
2023-02-15T23:18:54.534Z,102073.25
2023-02-15T23:21:33.669Z,102068.44
2023-02-15T23:24:17.671Z,102082.00
2023-02-15T23:26:46.333Z,102074.06
2023-02-15T23:29:20.482Z,102076.59
2023-02-15T23:31:54.524Z,102071.16
2023-02-15T23:34:26.714Z,102073.44
2023-02-15T23:36:54.961Z,102079.47
2023-02-15T23:39:44.110Z,102062.38
2023-02-15T23:42:19.430Z,102059.03
2023-02-15T23:44:48.716Z,102059.06
2023-02-15T23:47:54.749Z,102064.06
2023-02-15T23:50:28.564Z,102060.34
2023-02-15T23:52:57.769Z,102053.19
2023-02-15T23:55:34.651Z,102068.69
2023-02-15T23:58:05.249Z,102063.66
